Time;durP1;ratioP1;P1;durP2;ratioP2;P2;SDS_P1;SDS_P2;PMS_P1;PMS_P2;Temp;Humidity;BMP_temperature;BMP_pressure;BME280_temperature;BME280_humidity;BME280_pressure;Samples;Min_cycle;Max_cycle;Signal;HPM_P1;HPM_P2
2022/12/01 00:01:48;;;;;;;120.38;49.50;;;6.10;99.90;;;;;;5036683;28;20144;-81
2022/12/01 00:04:34;;;;;;;116.13;47.33;;;6.10;99.90;;;;;;5033908;28;20104;-79
2022/12/01 00:07:20;;;;;;;129.07;48.17;;;6.10;99.90;;;;;;5051344;28;20044;-81
2022/12/01 00:10:27;;;;;;;129.93;50.22;;;6.10;99.90;;;;;;5054226;28;20576;-84
2022/12/01 00:13:13;;;;;;;104.28;44.08;;;6.10;99.90;;;;;;5040054;28;20063;-84
2022/12/01 00:16:14;;;;;;;119.10;46.10;;;6.10;99.90;;;;;;5036980;28;20072;-79
2022/12/01 00:19:00;;;;;;;126.07;49.80;;;6.10;99.90;;;;;;5034016;28;20485;-77
2022/12/01 00:21:46;;;;;;;113.75;50.00;;;6.10;99.90;;;;;;5050827;28;20060;-81
2022/12/01 00:24:33;;;;;;;128.68;48.95;;;6.10;99.90;;;;;;5018890;28;20052;-83
2022/12/01 00:27:19;;;;;;;124.55;46.97;;;6.10;99.90;;;;;;5037063;28;20041;-82
2022/12/01 00:30:08;;;;;;;109.07;44.83;;;6.10;99.90;;;;;;5024067;28;20067;-79
2022/12/01 00:32:54;;;;;;;104.88;42.78;;;6.10;99.90;;;;;;5034014;28;20489;-85
2022/12/01 00:35:40;;;;;;;112.88;45.38;;;6.10;99.90;;;;;;5036134;28;20052;-86
2022/12/01 00:38:27;;;;;;;130.23;49.42;;;6.10;99.90;;;;;;5024794;28;20114;-79
2022/12/01 00:41:13;;;;;;;119.53;46.47;;;6.10;99.90;;;;;;5054694;28;20052;-81
2022/12/01 00:43:59;;;;;;;106.38;46.70;;;6.00;99.90;;;;;;5049434;28;20132;-79
2022/12/01 00:46:46;;;;;;;123.57;48.90;;;6.00;99.90;;;;;;5050048;28;20061;-78
2022/12/01 00:49:32;;;;;;;121.10;48.78;;;6.00;99.90;;;;;;5033248;28;20781;-78
2022/12/01 00:52:19;;;;;;;117.85;47.20;;;6.10;99.90;;;;;;5034136;28;20053;-85
2022/12/01 00:55:05;;;;;;;119.10;45.72;;;6.00;99.90;;;;;;5038165;28;20041;-85
2022/12/01 00:57:51;;;;;;;117.03;48.22;;;6.00;99.90;;;;;;5035667;28;20140;-79
2022/12/01 01:00:37;;;;;;;110.15;46.60;;;6.00;99.90;;;;;;5051125;28;20053;-78
2022/12/01 01:03:25;;;;;;;105.82;43.55;;;6.00;99.90;;;;;;5033172;28;20057;-79
2022/12/01 01:06:12;;;;;;;113.40;47.70;;;6.00;99.90;;;;;;5022547;28;20044;-83
2022/12/01 01:08:58;;;;;;;113.18;46.08;;;6.00;99.90;;;;;;5033104;28;20562;-78
2022/12/01 01:11:44;;;;;;;112.88;47.50;;;6.00;99.90;;;;;;5033577;28;20118;-79
2022/12/01 01:14:30;;;;;;;106.65;44.80;;;6.00;99.90;;;;;;5032370;28;20432;-85
2022/12/01 01:17:16;;;;;;;107.82;44.40;;;6.00;99.90;;;;;;5032521;28;20478;-84
2022/12/01 01:20:03;;;;;;;112.05;48.33;;;6.00;99.90;;;;;;5035635;28;20519;-80
2022/12/01 01:22:49;;;;;;;120.13;47.30;;;6.00;99.90;;;;;;5036623;28;20048;-80
2022/12/01 01:25:35;;;;;;;110.40;46.60;;;6.00;99.90;;;;;;5055437;28;20045;-79
2022/12/01 01:28:21;;;;;;;117.18;46.53;;;6.00;99.90;;;;;;5050181;28;20057;-77
2022/12/01 01:31:10;;;;;;;125.03;47.88;;;6.00;99.90;;;;;;5031945;28;20065;-78
2022/12/01 01:33:57;;;;;;;123.65;47.90;;;6.00;99.90;;;;;;5049794;28;20052;-81
2022/12/01 01:36:43;;;;;;;105.47;42.63;;;6.00;99.90;;;;;;5039518;28;20102;-80
2022/12/01 01:39:30;;;;;;;117.10;46.08;;;6.00;99.90;;;;;;5039192;28;20136;-78
2022/12/01 01:42:18;;;;;;;104.07;42.45;;;6.00;99.90;;;;;;5052473;28;20088;-82
2022/12/01 01:45:18;;;;;;;103.28;44.45;;;6.00;99.90;;;;;;5032894;28;20060;-78
2022/12/01 01:48:04;;;;;;;111.25;44.75;;;6.00;99.90;;;;;;5050057;28;20070;-79
2022/12/01 01:50:50;;;;;;;102.82;41.40;;;6.00;99.90;;;;;;5019436;28;20045;-82
2022/12/01 01:53:37;;;;;;;105.18;43.08;;;6.00;99.90;;;;;;5033374;28;20060;-80
2022/12/01 01:56:23;;;;;;;108.20;44.83;;;6.00;99.90;;;;;;5052622;28;20072;-86
2022/12/01 01:59:17;;;;;;;110.20;44.78;;;6.00;99.90;;;;;;5051592;28;20053;-85
2022/12/01 02:02:07;;;;;;;88.30;39.63;;;6.00;99.90;;;;;;5033244;28;20072;-82
2022/12/01 02:05:01;;;;;;;118.35;47.92;;;6.00;99.90;;;;;;5032793;28;20114;-82
2022/12/01 02:07:49;;;;;;;106.95;43.22;;;6.00;99.90;;;;;;5051378;28;20140;-84
2022/12/01 02:11:12;;;;;;;93.40;39.25;;;5.90;99.90;;;;;;5051298;28;20049;-80
2022/12/01 02:14:18;;;;;;;108.00;44.72;;;6.00;99.90;;;;;;5032750;28;20130;-85
2022/12/01 02:17:27;;;;;;;122.53;45.97;;;6.00;99.90;;;;;;5043423;28;20045;-84
2022/12/01 02:20:50;;;;;;;107.05;42.30;;;5.90;99.90;;;;;;5017268;28;20414;-78
2022/12/01 02:23:40;;;;;;;103.80;43.83;;;5.90;99.90;;;;;;5050427;28;20061;-85
2022/12/01 02:26:48;;;;;;;104.20;41.92;;;5.90;99.90;;;;;;5050201;28;20068;-80
2022/12/01 02:29:52;;;;;;;115.22;45.85;;;5.90;99.90;;;;;;5032636;28;20045;-77
2022/12/01 02:32:59;;;;;;;103.95;44.30;;;5.90;99.90;;;;;;5050623;28;20056;-84
2022/12/01 02:35:54;;;;;;;105.00;45.60;;;5.90;99.90;;;;;;5035344;28;20083;-78
2022/12/01 02:38:54;;;;;;;101.00;41.50;;;6.00;99.90;;;;;;5049832;28;20057;-82
2022/12/01 02:41:58;;;;;;;113.38;46.53;;;6.00;99.90;;;;;;5038736;28;20060;-81
2022/12/01 02:44:46;;;;;;;109.78;46.03;;;6.00;99.90;;;;;;5035988;28;20060;-83
2022/12/01 02:47:34;;;;;;;122.22;49.45;;;6.00;99.90;;;;;;5042563;28;20049;-85
2022/12/01 02:50:22;;;;;;;119.55;47.47;;;6.00;99.90;;;;;;5030903;28;20048;-81
2022/12/01 02:53:11;;;;;;;103.65;44.50;;;6.00;99.90;;;;;;5052637;28;20064;-80
2022/12/01 02:55:58;;;;;;;113.82;47.42;;;6.00;99.90;;;;;;5052326;28;20045;-84
2022/12/01 02:58:44;;;;;;;110.47;44.55;;;6.00;99.90;;;;;;5055932;28;20040;-80
2022/12/01 03:01:31;;;;;;;110.93;44.70;;;6.00;99.90;;;;;;5053183;28;20052;-80
2022/12/01 03:04:29;;;;;;;96.05;42.83;;;6.00;99.90;;;;;;5036330;28;20135;-83
2022/12/01 03:07:37;;;;;;;108.78;41.70;;;6.00;99.90;;;;;;5023465;28;20109;-83
2022/12/01 03:10:52;;;;;;;111.32;42.78;;;5.90;99.90;;;;;;5060317;28;20088;-82
2022/12/01 03:13:44;;;;;;;106.30;42.28;;;5.90;99.90;;;;;;5036769;28;20041;-85
2022/12/01 03:16:49;;;;;;;102.13;44.95;;;5.90;99.90;;;;;;5052764;28;20044;-81
2022/12/01 03:19:40;;;;;;;111.67;43.40;;;6.00;99.90;;;;;;5053653;28;20133;-79
2022/12/01 03:22:45;;;;;;;108.53;45.08;;;6.00;99.90;;;;;;5034812;28;20056;-81
2022/12/01 03:25:31;;;;;;;107.05;45.40;;;6.00;99.90;;;;;;5051810;28;20111;-87
2022/12/01 03:28:27;;;;;;;108.53;42.42;;;6.00;99.90;;;;;;5037485;28;20060;-82
2022/12/01 03:31:19;;;;;;;92.30;39.75;;;6.00;99.90;;;;;;5052644;28;20057;-79
2022/12/01 03:34:39;;;;;;;75.13;32.88;;;6.00;99.90;;;;;;5054907;28;20053;-85
2022/12/01 03:37:55;;;;;;;68.57;30.73;;;6.00;99.90;;;;;;5039195;28;20076;-79
2022/12/01 03:40:44;;;;;;;68.72;29.90;;;6.10;99.90;;;;;;5052412;28;20102;-83
2022/12/01 03:43:33;;;;;;;66.85;29.30;;;6.10;99.90;;;;;;5054558;28;20049;-81
2022/12/01 03:46:36;;;;;;;51.53;25.52;;;6.10;99.90;;;;;;5035082;28;20099;-80
2022/12/01 03:49:24;;;;;;;58.45;27.50;;;6.10;99.90;;;;;;5054225;28;20056;-82
2022/12/01 03:52:48;;;;;;;52.85;22.80;;;6.10;99.90;;;;;;5036665;28;20056;-86
2022/12/01 03:55:42;;;;;;;36.47;18.55;;;6.20;99.90;;;;;;5054468;28;20064;-85
2022/12/01 03:58:37;;;;;;;40.08;19.30;;;6.20;99.90;;;;;;5059949;28;20581;-82
2022/12/01 04:01:25;;;;;;;36.85;18.40;;;6.20;99.90;;;;;;5052846;28;20041;-84
2022/12/01 04:04:13;;;;;;;37.17;17.73;;;6.20;99.90;;;;;;5036909;28;20730;-86
2022/12/01 04:06:59;;;;;;;36.58;18.52;;;6.20;99.90;;;;;;5050525;28;20556;-80
2022/12/01 04:09:46;;;;;;;36.95;18.15;;;6.20;99.90;;;;;;5051282;28;20416;-80
2022/12/01 04:12:32;;;;;;;37.60;18.10;;;6.20;99.90;;;;;;5033958;28;20153;-79
2022/12/01 04:15:19;;;;;;;38.78;19.67;;;6.20;99.90;;;;;;5035808;28;20045;-80
2022/12/01 04:18:05;;;;;;;37.83;16.35;;;6.30;99.90;;;;;;5035350;28;20730;-84
2022/12/01 04:20:51;;;;;;;36.88;16.52;;;6.30;99.90;;;;;;5060535;28;20045;-83
2022/12/01 04:26:42;;;;;;;31.77;14.80;;;6.20;99.90;;;;;;5053545;28;20127;-82
2022/12/01 04:29:28;;;;;;;35.97;16.67;;;6.30;99.90;;;;;;5039089;28;20052;-82
2022/12/01 04:32:15;;;;;;;30.02;14.60;;;6.30;99.90;;;;;;5043379;28;20052;-82
2022/12/01 04:35:01;;;;;;;31.60;15.98;;;6.30;99.90;;;;;;5040787;28;20061;-84
2022/12/01 04:37:47;;;;;;;26.13;13.20;;;6.30;99.90;;;;;;5053099;28;20106;-79
2022/12/01 04:40:33;;;;;;;27.25;11.23;;;6.30;99.90;;;;;;5035027;28;20044;-79
2022/12/01 04:43:19;;;;;;;21.42;11.95;;;6.30;99.90;;;;;;5052514;28;20071;-78
2022/12/01 04:46:06;;;;;;;24.13;11.07;;;6.30;99.90;;;;;;5036448;28;20057;-83
2022/12/01 04:48:52;;;;;;;26.98;13.18;;;6.30;99.90;;;;;;5047709;28;20060;-86
2022/12/01 04:51:39;;;;;;;27.02;11.88;;;6.30;99.90;;;;;;5034677;28;20146;-78
2022/12/01 04:54:25;;;;;;;22.48;10.48;;;6.30;99.90;;;;;;5057405;28;20037;-85
2022/12/01 04:57:11;;;;;;;22.08;10.20;;;6.30;99.90;;;;;;5057961;28;20072;-84
2022/12/01 04:59:57;;;;;;;19.52;10.40;;;6.30;99.90;;;;;;5051430;28;20061;-80
2022/12/01 05:02:44;;;;;;;19.65;11.75;;;6.30;99.90;;;;;;5053128;28;20045;-81
2022/12/01 05:05:30;;;;;;;21.45;9.93;;;6.30;99.90;;;;;;5055443;28;20323;-82
2022/12/01 05:08:17;;;;;;;19.90;10.07;;;6.30;99.90;;;;;;5050346;28;20111;-84
2022/12/01 05:11:06;;;;;;;18.85;10.13;;;6.30;99.90;;;;;;5053059;28;20067;-83
2022/12/01 05:13:52;;;;;;;16.88;9.32;;;6.30;99.90;;;;;;5028075;28;20056;-82
2022/12/01 05:16:39;;;;;;;17.98;9.07;;;6.30;99.90;;;;;;5049765;28;20052;-80
2022/12/01 05:22:30;;;;;;;17.57;9.13;;;6.30;99.90;;;;;;5050373;28;20053;-81
2022/12/01 05:25:16;;;;;;;20.10;8.95;;;6.30;99.90;;;;;;5050406;28;20291;-81
2022/12/01 05:28:04;;;;;;;19.45;9.57;;;6.30;99.90;;;;;;5019284;28;20210;-82
2022/12/01 05:30:50;;;;;;;17.73;8.93;;;6.40;99.90;;;;;;5038499;28;20116;-78
2022/12/01 05:33:36;;;;;;;17.20;9.23;;;6.30;99.90;;;;;;5031894;28;20076;-82
2022/12/01 05:36:22;;;;;;;19.38;8.57;;;6.30;99.90;;;;;;5053300;28;20061;-82
2022/12/01 05:39:08;;;;;;;19.08;8.75;;;6.30;99.90;;;;;;5031974;28;20519;-78
2022/12/01 05:41:54;;;;;;;19.02;9.15;;;6.20;99.90;;;;;;5050789;28;20052;-80
2022/12/01 05:44:40;;;;;;;19.38;9.82;;;6.20;99.90;;;;;;5018159;28;20060;-82
2022/12/01 05:47:27;;;;;;;18.08;10.02;;;6.10;99.90;;;;;;5049534;28;20053;-79
2022/12/01 05:50:13;;;;;;;20.30;9.90;;;5.90;99.90;;;;;;5042249;28;20072;-85
2022/12/01 05:52:59;;;;;;;21.08;10.27;;;5.80;99.90;;;;;;5055818;28;20077;-78
2022/12/01 05:55:45;;;;;;;17.77;9.77;;;5.70;99.90;;;;;;5048629;28;20144;-80
2022/12/01 05:58:32;;;;;;;18.85;9.38;;;5.60;99.90;;;;;;5031038;28;20057;-81
2022/12/01 06:01:18;;;;;;;17.95;9.02;;;5.60;99.90;;;;;;5031820;28;20147;-78
2022/12/01 06:04:04;;;;;;;21.88;9.98;;;5.40;99.90;;;;;;5050583;28;20091;-83
2022/12/01 06:06:50;;;;;;;16.98;9.35;;;5.40;99.90;;;;;;5052863;28;20111;-83
2022/12/01 06:09:37;;;;;;;19.52;10.02;;;5.30;99.90;;;;;;5035781;28;20080;-80
2022/12/01 06:12:23;;;;;;;17.13;8.95;;;5.20;99.90;;;;;;5033355;28;20103;-82
2022/12/01 06:15:11;;;;;;;16.27;9.10;;;5.20;99.90;;;;;;5036879;28;20048;-80
2022/12/01 06:18:00;;;;;;;16.38;8.82;;;5.10;99.90;;;;;;5053767;28;20513;-78
2022/12/01 06:20:46;;;;;;;18.33;8.25;;;5.00;99.90;;;;;;5055568;28;20052;-86
2022/12/01 06:23:33;;;;;;;16.00;7.93;;;5.00;99.90;;;;;;5037278;28;20541;-78
2022/12/01 06:26:20;;;;;;;14.48;8.35;;;4.90;99.90;;;;;;5054327;28;20505;-84
2022/12/01 06:29:06;;;;;;;14.48;7.57;;;4.90;99.90;;;;;;5035102;28;20102;-82
2022/12/01 06:31:52;;;;;;;12.55;7.15;;;4.80;99.90;;;;;;5054366;28;20060;-79
2022/12/01 06:34:38;;;;;;;15.15;7.55;;;4.80;99.90;;;;;;5036237;28;20045;-85
2022/12/01 06:37:26;;;;;;;13.95;7.10;;;4.80;99.90;;;;;;5055521;28;20049;-81
2022/12/01 06:40:12;;;;;;;14.73;6.75;;;4.70;99.90;;;;;;5057489;28;20049;-77
2022/12/01 06:43:01;;;;;;;13.27;6.97;;;4.80;99.90;;;;;;5053613;28;20493;-78
2022/12/01 06:45:47;;;;;;;12.15;5.85;;;4.80;99.90;;;;;;5055630;28;20076;-82
2022/12/01 06:48:34;;;;;;;12.45;6.43;;;4.90;99.90;;;;;;5037908;28;20064;-80
2022/12/01 06:51:20;;;;;;;14.13;6.78;;;5.00;99.90;;;;;;5054899;28;20493;-85
2022/12/01 06:54:06;;;;;;;12.48;7.07;;;5.10;99.90;;;;;;5053976;28;20822;-81
2022/12/01 06:56:52;;;;;;;15.40;6.93;;;5.10;99.90;;;;;;5036639;28;20568;-78
2022/12/01 06:59:38;;;;;;;13.48;6.82;;;5.20;99.90;;;;;;5052112;28;20049;-83
2022/12/01 07:02:24;;;;;;;14.85;8.57;;;5.20;99.90;;;;;;5054643;28;20095;-86
2022/12/01 07:05:11;;;;;;;13.55;6.47;;;5.20;99.90;;;;;;5038768;28;20057;-83
2022/12/01 07:07:57;;;;;;;15.07;7.50;;;5.20;99.90;;;;;;5037827;28;20048;-80
2022/12/01 07:10:43;;;;;;;12.93;6.45;;;5.20;99.90;;;;;;5034665;28;20060;-81
2022/12/01 07:13:29;;;;;;;16.50;7.72;;;5.20;99.90;;;;;;5034726;28;20057;-85
2022/12/01 07:16:15;;;;;;;13.23;7.25;;;5.30;99.90;;;;;;5021190;28;20057;-81
2022/12/01 07:19:02;;;;;;;14.00;7.25;;;5.30;99.90;;;;;;5036016;28;20072;-82
2022/12/01 07:21:49;;;;;;;15.23;7.20;;;5.30;99.90;;;;;;5022489;28;20089;-81
2022/12/01 07:24:35;;;;;;;17.48;8.50;;;5.30;99.90;;;;;;5032101;28;20057;-82
2022/12/01 07:27:21;;;;;;;15.57;7.47;;;5.20;99.90;;;;;;5032700;28;20056;-81
2022/12/01 07:30:08;;;;;;;14.40;8.05;;;5.10;99.90;;;;;;5017831;28;20136;-83
2022/12/01 07:32:54;;;;;;;16.95;8.98;;;5.10;99.90;;;;;;5031917;28;20067;-81
2022/12/01 07:35:40;;;;;;;13.73;7.85;;;5.00;99.90;;;;;;5014955;28;20065;-82
2022/12/01 07:38:30;;;;;;;14.88;7.90;;;4.90;99.90;;;;;;5020481;28;20053;-79
2022/12/01 07:41:20;;;;;;;16.95;8.75;;;4.80;99.90;;;;;;5032060;28;20125;-82
2022/12/01 07:44:08;;;;;;;16.83;8.18;;;4.80;99.90;;;;;;5032756;28;20434;-81
2022/12/01 07:46:54;;;;;;;15.30;8.02;;;4.70;99.90;;;;;;5031685;28;20057;-79
2022/12/01 07:49:41;;;;;;;17.33;8.13;;;4.60;99.90;;;;;;5013812;28;20100;-82
2022/12/01 07:52:27;;;;;;;17.58;8.57;;;4.50;99.90;;;;;;5017455;28;20057;-82
2022/12/01 07:55:13;;;;;;;17.83;8.77;;;4.50;99.90;;;;;;5035233;28;20045;-81
2022/12/01 07:57:59;;;;;;;20.67;10.00;;;4.40;99.90;;;;;;5013165;28;20057;-80
2022/12/01 08:00:45;;;;;;;22.02;9.18;;;4.40;99.90;;;;;;5034313;28;20053;-82
2022/12/01 08:03:32;;;;;;;21.60;9.43;;;4.40;99.90;;;;;;5013664;28;20081;-79
2022/12/01 08:06:22;;;;;;;101.38;17.58;;;4.50;99.90;;;;;;5014498;28;20104;-87
2022/12/01 08:09:08;;;;;;;105.68;18.60;;;4.50;99.90;;;;;;5034899;28;20046;-85
2022/12/01 08:11:55;;;;;;;43.67;12.88;;;4.60;99.90;;;;;;5023410;28;20054;-87
2022/12/01 08:14:41;;;;;;;35.10;13.32;;;4.70;99.90;;;;;;5016617;28;20049;-86
2022/12/01 08:17:27;;;;;;;26.20;9.55;;;4.80;99.90;;;;;;5032950;28;20076;-80
2022/12/01 08:20:14;;;;;;;23.58;9.35;;;4.90;99.90;;;;;;5020479;28;20060;-79
2022/12/01 08:23:01;;;;;;;27.52;9.45;;;4.90;99.90;;;;;;5031545;28;20049;-85
2022/12/01 08:25:47;;;;;;;22.25;9.38;;;5.00;99.90;;;;;;5020059;28;20053;-81
2022/12/01 08:28:36;;;;;;;17.98;8.30;;;5.00;99.90;;;;;;5013220;28;20057;-79
2022/12/01 08:31:29;;;;;;;24.60;9.55;;;5.00;99.90;;;;;;5017776;28;20054;-80
2022/12/01 08:34:16;;;;;;;42.10;13.52;;;5.00;99.90;;;;;;5033732;28;20057;-79
2022/12/01 08:37:02;;;;;;;23.58;9.45;;;5.00;99.90;;;;;;5038581;28;20409;-84
2022/12/01 08:39:48;;;;;;;31.50;11.23;;;5.10;99.90;;;;;;5037151;28;20520;-81
2022/12/01 08:42:34;;;;;;;21.45;8.75;;;5.10;99.90;;;;;;5033580;28;20055;-80
2022/12/01 08:45:21;;;;;;;21.05;9.20;;;5.30;99.90;;;;;;5032108;28;20045;-79
2022/12/01 08:48:08;;;;;;;18.70;9.23;;;5.30;99.90;;;;;;5030456;28;20132;-77
2022/12/01 08:51:04;;;;;;;24.92;9.88;;;5.50;99.90;;;;;;5036506;28;20049;-80
2022/12/01 08:53:51;;;;;;;47.40;13.18;;;5.60;99.90;;;;;;5033788;28;20054;-79
2022/12/01 08:56:40;;;;;;;50.22;14.45;;;5.70;99.90;;;;;;5032696;28;20058;-80
2022/12/01 08:59:26;;;;;;;39.50;13.18;;;5.80;99.90;;;;;;5029367;28;20055;-81
2022/12/01 09:02:14;;;;;;;23.27;9.77;;;6.00;99.90;;;;;;5030113;28;20050;-80
2022/12/01 09:05:01;;;;;;;25.75;10.80;;;6.10;99.90;;;;;;5034927;28;20135;-78
2022/12/01 09:08:29;;;;;;;21.27;9.65;;;6.30;99.90;;;;;;5032283;28;20049;-79
2022/12/01 09:10:53;;;;;;;20.90;10.23;;;6.50;99.90;;;;;;5031134;28;20068;-76
2022/12/01 09:13:41;;;;;;;19.92;9.88;;;6.60;99.90;;;;;;5030890;28;20045;-78
2022/12/01 09:16:28;;;;;;;19.25;10.00;;;6.70;99.90;;;;;;5031535;28;20723;-78
2022/12/01 09:19:17;;;;;;;23.80;10.48;;;6.90;99.90;;;;;;5016137;28;20084;-80
2022/12/01 09:22:03;;;;;;;21.38;11.40;;;7.00;99.90;;;;;;5058208;28;20498;-79
2022/12/01 09:24:49;;;;;;;20.13;10.23;;;7.20;99.90;;;;;;5022001;28;20057;-79
2022/12/01 09:27:35;;;;;;;19.98;9.40;;;7.40;99.90;;;;;;5051415;28;20049;-80
2022/12/01 09:30:21;;;;;;;23.13;10.73;;;7.50;99.90;;;;;;5050857;28;20135;-80
2022/12/01 09:33:07;;;;;;;25.73;10.23;;;7.60;99.90;;;;;;5052142;28;20049;-84
2022/12/01 09:36:00;;;;;;;19.15;9.52;;;7.70;99.90;;;;;;5054716;28;20053;-80
2022/12/01 09:38:46;;;;;;;19.15;9.45;;;7.80;99.90;;;;;;5052095;28;20077;-83
2022/12/01 09:41:34;;;;;;;15.63;8.73;;;8.20;99.90;;;;;;5019484;28;20053;-87
2022/12/01 09:44:31;;;;;;;16.90;8.38;;;8.50;99.90;;;;;;5049621;28;20096;-81
2022/12/01 09:47:38;;;;;;;13.57;7.57;;;8.90;99.90;;;;;;5037203;28;20087;-85
2022/12/01 09:50:28;;;;;;;12.18;7.38;;;9.30;99.90;;;;;;5056999;28;20100;-83
2022/12/01 09:53:20;;;;;;;13.13;7.15;;;9.60;99.90;;;;;;5058265;28;20056;-79
2022/12/01 09:56:14;;;;;;;13.77;7.63;;;10.00;99.90;;;;;;5037163;28;20052;-80
2022/12/01 09:59:07;;;;;;;11.35;6.07;;;10.30;99.90;;;;;;5042623;28;20040;-84
2022/12/01 10:01:59;;;;;;;11.60;6.00;;;10.40;99.90;;;;;;5060179;28;20084;-83
2022/12/01 10:04:47;;;;;;;12.60;6.63;;;10.60;99.90;;;;;;5040471;28;20067;-85
2022/12/01 10:07:48;;;;;;;12.43;6.90;;;10.90;99.90;;;;;;5054716;28;20084;-84
2022/12/01 10:10:47;;;;;;;13.07;6.88;;;11.20;99.90;;;;;;5057725;28;20045;-81
2022/12/01 10:13:33;;;;;;;15.70;7.47;;;11.30;99.90;;;;;;5038078;28;20057;-86
2022/12/01 10:16:27;;;;;;;14.40;7.60;;;11.70;99.90;;;;;;5061053;28;20041;-80
2022/12/01 10:19:30;;;;;;;13.75;7.07;;;11.80;99.90;;;;;;5054941;28;20056;-82
2022/12/01 10:22:27;;;;;;;14.60;7.63;;;11.50;99.90;;;;;;5054295;28;20049;-79
2022/12/01 10:25:25;;;;;;;16.45;8.13;;;11.00;99.90;;;;;;5052843;28;20052;-81
2022/12/01 10:28:21;;;;;;;15.30;7.47;;;10.60;99.90;;;;;;5036878;28;20069;-79
2022/12/01 10:31:22;;;;;;;11.88;6.75;;;10.20;99.90;;;;;;5059618;28;20053;-85
2022/12/01 10:34:30;;;;;;;9.07;5.00;;;9.70;99.90;;;;;;5055523;28;20049;-78
2022/12/01 10:37:23;;;;;;;11.38;5.85;;;9.20;99.90;;;;;;5035112;28;20496;-81
2022/12/01 10:40:14;;;;;;;10.73;5.63;;;8.90;99.90;;;;;;5053130;28;20056;-83
2022/12/01 10:43:01;;;;;;;11.30;5.63;;;8.60;99.90;;;;;;5054291;28;20053;-79
2022/12/01 10:45:47;;;;;;;9.40;6.13;;;8.40;99.90;;;;;;5057908;28;20041;-85
2022/12/01 10:48:55;;;;;;;10.07;6.20;;;8.30;99.90;;;;;;5037964;28;20056;-83
2022/12/01 10:51:56;;;;;;;12.65;7.00;;;8.20;99.90;;;;;;5055039;28;20167;-86
2022/12/01 10:54:42;;;;;;;11.75;7.15;;;8.10;99.90;;;;;;5052585;28;20068;-85
2022/12/01 10:57:30;;;;;;;10.70;5.93;;;8.00;99.90;;;;;;5052841;28;20045;-81
2022/12/01 11:00:31;;;;;;;11.05;6.15;;;8.00;99.90;;;;;;5054922;28;20320;-84
2022/12/01 11:03:21;;;;;;;10.05;6.20;;;8.10;99.90;;;;;;5054996;28;20144;-83
2022/12/01 11:06:09;;;;;;;14.38;6.65;;;8.20;99.90;;;;;;5022556;28;20114;-87
2022/12/01 11:09:02;;;;;;;10.88;6.40;;;8.30;99.90;;;;;;5037936;28;20057;-83
2022/12/01 11:11:57;;;;;;;10.45;5.35;;;8.50;99.90;;;;;;5022011;28;20059;-83
2022/12/01 11:14:54;;;;;;;9.93;5.55;;;8.60;99.90;;;;;;5054475;28;20401;-79
2022/12/01 11:17:41;;;;;;;9.68;5.22;;;8.80;99.90;;;;;;5054270;28;20052;-85
2022/12/01 11:20:29;;;;;;;10.95;6.15;;;8.90;99.90;;;;;;5035212;28;20060;-78
2022/12/01 11:23:23;;;;;;;10.25;6.43;;;9.10;99.90;;;;;;5052287;28;20064;-79
2022/12/01 11:26:12;;;;;;;8.60;5.30;;;10.10;99.90;;;;;;5034604;28;20107;-86
2022/12/01 11:29:29;;;;;;;10.32;5.60;;;10.90;99.90;;;;;;5055412;28;20061;-83
2022/12/01 11:32:27;;;;;;;12.45;6.05;;;11.80;99.90;;;;;;5035247;28;20049;-85
2022/12/01 11:35:13;;;;;;;8.90;5.10;;;13.20;99.90;;;;;;5038720;28;20064;-78
2022/12/01 11:38:02;;;;;;;8.50;4.93;;;14.30;99.90;;;;;;5051855;28;20136;-85
2022/12/01 11:40:51;;;;;;;9.30;5.65;;;15.20;99.90;;;;;;5036793;28;20056;-83
2022/12/01 11:43:38;;;;;;;9.82;5.82;;;15.30;99.90;;;;;;5038403;28;20057;-85
2022/12/01 11:46:35;;;;;;;8.98;5.22;;;15.20;99.90;;;;;;5034017;28;20144;-81
2022/12/01 11:49:24;;;;;;;9.38;5.82;;;15.20;99.90;;;;;;5054399;28;20087;-83
2022/12/01 11:52:33;;;;;;;12.52;6.55;;;15.50;99.90;;;;;;5054581;28;20045;-80
2022/12/01 11:55:22;;;;;;;12.73;7.00;;;15.90;99.90;;;;;;5058310;28;20057;-82
2022/12/01 11:58:08;;;;;;;12.90;8.40;;;16.50;99.90;;;;;;5034182;28;20080;-85
2022/12/01 12:00:57;;;;;;;12.13;7.47;;;17.10;99.90;;;;;;5053631;28;20053;-82
2022/12/01 12:04:09;;;;;;;13.35;8.32;;;17.00;98.20;;;;;;5019900;28;20049;-82
2022/12/01 12:07:19;;;;;;;13.52;8.68;;;15.90;96.70;;;;;;5055553;28;20064;-86
2022/12/01 12:10:25;;;;;;;13.63;8.00;;;14.90;99.30;;;;;;5054174;28;20052;-84
2022/12/01 12:13:14;;;;;;;17.45;9.02;;;14.00;99.90;;;;;;5038835;28;20081;-82
2022/12/01 12:16:15;;;;;;;14.75;8.45;;;13.20;99.90;;;;;;5033441;28;20476;-85
2022/12/01 12:19:34;;;;;;;14.48;8.35;;;12.40;99.90;;;;;;5051018;28;20052;-86
2022/12/01 12:22:47;;;;;;;16.10;9.45;;;11.90;99.90;;;;;;5042863;28;20037;-82
2022/12/01 12:26:09;;;;;;;14.85;9.57;;;11.30;99.90;;;;;;5033907;28;20060;-77
2022/12/01 12:29:26;;;;;;;17.23;9.43;;;10.90;99.90;;;;;;5051516;28;20128;-85
2022/12/01 12:32:25;;;;;;;18.15;9.73;;;10.60;99.90;;;;;;5037409;28;20394;-78
2022/12/01 12:35:29;;;;;;;21.25;10.95;;;10.40;99.90;;;;;;5056230;28;20049;-83
2022/12/01 12:38:50;;;;;;;18.40;10.40;;;10.10;99.90;;;;;;5036392;28;20044;-83
2022/12/01 12:41:46;;;;;;;18.08;10.02;;;10.00;99.90;;;;;;5050760;28;20053;-80
2022/12/01 12:44:41;;;;;;;16.83;10.50;;;9.80;99.90;;;;;;5052383;28;20052;-81
2022/12/01 12:47:49;;;;;;;17.50;10.25;;;9.70;99.90;;;;;;5038400;28;20421;-79
2022/12/01 12:50:41;;;;;;;18.10;11.43;;;9.70;99.90;;;;;;5052977;28;20051;-79
2022/12/01 12:53:33;;;;;;;19.58;11.63;;;9.50;99.90;;;;;;5044638;28;20076;-80
2022/12/01 12:56:23;;;;;;;22.48;13.65;;;9.50;99.90;;;;;;5054398;28;20045;-85
2022/12/01 12:59:17;;;;;;;23.55;13.60;;;9.40;99.90;;;;;;5034554;28;20041;-81
2022/12/01 13:02:14;;;;;;;21.45;12.77;;;9.30;99.90;;;;;;5051237;28;20408;-79
2022/12/01 13:05:32;;;;;;;21.27;12.50;;;9.30;99.90;;;;;;5020866;28;20057;-84
2022/12/01 13:08:36;;;;;;;28.13;15.82;;;9.30;99.90;;;;;;5054770;28;20056;-83
2022/12/01 13:11:35;;;;;;;21.95;14.02;;;9.20;99.90;;;;;;5041995;28;20191;-85
2022/12/01 13:14:27;;;;;;;26.02;15.25;;;9.20;99.90;;;;;;5022191;28;20045;-80
2022/12/01 13:17:36;;;;;;;28.33;15.55;;;9.10;99.90;;;;;;5051980;28;20056;-83
2022/12/01 13:20:26;;;;;;;26.98;15.15;;;9.10;99.90;;;;;;5036404;28;20053;-83
2022/12/01 13:23:16;;;;;;;30.58;16.38;;;9.10;99.90;;;;;;5052291;28;20053;-83
2022/12/01 13:26:07;;;;;;;29.52;17.17;;;9.10;99.90;;;;;;5039623;28;20134;-84
2022/12/01 13:28:55;;;;;;;37.75;18.75;;;9.00;99.90;;;;;;5056964;28;20056;-78
2022/12/01 13:31:48;;;;;;;30.40;17.20;;;8.90;99.90;;;;;;5035481;28;20057;-78
2022/12/01 13:34:41;;;;;;;36.15;19.17;;;8.80;99.90;;;;;;5032323;28;20053;-80
2022/12/01 13:37:34;;;;;;;32.65;18.25;;;8.70;99.90;;;;;;5036430;28;20053;-83
2022/12/01 13:40:25;;;;;;;43.63;22.63;;;8.70;99.90;;;;;;5057019;28;20083;-83
2022/12/01 13:43:20;;;;;;;42.50;23.42;;;8.60;99.90;;;;;;5037159;28;20411;-81
2022/12/01 13:46:18;;;;;;;;;;;8.60;99.90;;;;;;5053062;28;20045;-80
2022/12/01 13:49:24;;;;;;;41.33;22.70;;;8.40;99.90;;;;;;5036609;28;19931;-85
2022/12/01 13:52:24;;;;;;;42.05;22.75;;;8.40;99.90;;;;;;5051910;28;20040;-86
2022/12/01 13:55:11;;;;;;;40.70;21.92;;;8.30;99.90;;;;;;5037490;28;20057;-79
2022/12/01 13:57:57;;;;;;;46.97;24.92;;;8.20;99.90;;;;;;5051085;28;20067;-84
2022/12/01 14:00:43;;;;;;;42.45;23.67;;;8.10;99.90;;;;;;5032984;28;20523;-81
2022/12/01 14:03:38;;;;;;;45.25;24.48;;;8.10;99.90;;;;;;5050884;28;20136;-84
2022/12/01 14:06:26;;;;;;;50.22;26.80;;;8.00;99.90;;;;;;5032494;28;20809;-83
2022/12/01 14:09:35;;;;;;;51.25;28.50;;;7.90;99.90;;;;;;5033769;28;20061;-84
2022/12/01 14:12:33;;;;;;;44.05;24.58;;;7.80;99.90;;;;;;5056674;28;20068;-84
2022/12/01 14:15:29;;;;;;;54.90;27.55;;;7.70;99.90;;;;;;5050236;28;20037;-79
2022/12/01 14:18:34;;;;;;;48.33;26.13;;;7.70;99.90;;;;;;5050594;28;20124;-84
2022/12/01 14:21:42;;;;;;;51.28;26.73;;;7.60;99.90;;;;;;5051149;28;20118;-85
2022/12/01 14:24:40;;;;;;;48.03;26.35;;;7.50;99.90;;;;;;5035070;28;20053;-82
2022/12/01 14:27:41;;;;;;;49.22;25.08;;;7.50;99.90;;;;;;5056062;28;20111;-80
2022/12/01 14:30:53;;;;;;;46.90;27.08;;;7.50;99.90;;;;;;5050272;28;20041;-78
2022/12/01 14:34:13;;;;;;;54.05;27.08;;;7.40;99.90;;;;;;5030926;28;20060;-78
2022/12/01 14:37:23;;;;;;;55.88;28.25;;;7.30;99.90;;;;;;5009387;28;20072;-84
2022/12/01 14:40:20;;;;;;;53.75;27.20;;;7.40;99.90;;;;;;5056206;28;20135;-86
2022/12/01 14:46:21;;;;;;;50.83;26.45;;;7.20;99.90;;;;;;5053926;28;20053;-83
2022/12/01 14:49:17;;;;;;;53.20;27.25;;;7.20;99.90;;;;;;5036438;28;20103;-84
2022/12/01 14:52:11;;;;;;;50.65;26.40;;;7.20;99.90;;;;;;5054665;28;20396;-86
2022/12/01 14:55:00;;;;;;;52.15;25.80;;;7.00;99.90;;;;;;5053684;28;20053;-84